createdAt,value
2023-02-18T00:01:37.538Z,98077.06
2023-02-18T00:04:12.671Z,98082.09
2023-02-18T00:07:00.499Z,98085.34
2023-02-18T00:09:35.584Z,98088.30
2023-02-18T00:12:23.426Z,98093.84
2023-02-18T00:14:58.562Z,98098.58
2023-02-18T00:17:46.436Z,98098.29
2023-02-18T00:20:28.440Z,98095.96
2023-02-18T00:23:23.453Z,98090.93
2023-02-18T00:26:20.439Z,98084.81
2023-02-18T00:29:15.425Z,98081.23
2023-02-18T00:32:03.551Z,98088.14
2023-02-18T00:34:45.437Z,98090.64
2023-02-18T00:37:40.448Z,98097.40
2023-02-18T00:40:28.429Z,98093.20
2023-02-18T00:43:09.544Z,98098.68
2023-02-18T00:45:57.486Z,98112.20
2023-02-18T00:48:32.556Z,98110.09
2023-02-18T00:51:20.432Z,98111.06
2023-02-18T00:53:55.546Z,98119.02
2023-02-18T00:56:43.431Z,98127.21
2023-02-18T00:59:18.549Z,98134.56
2023-02-18T01:02:06.426Z,98155.65
2023-02-18T01:04:40.596Z,98139.77
2023-02-18T01:07:28.452Z,98151.98
2023-02-18T01:10:10.554Z,98167.38
2023-02-18T01:12:51.926Z,98163.42
2023-02-18T01:15:39.448Z,98161.98
2023-02-18T01:18:14.488Z,98156.38
2023-02-18T01:21:02.422Z,98154.80
2023-02-18T01:23:40.534Z,98147.23
2023-02-18T01:26:28.477Z,98147.67
2023-02-18T01:29:02.899Z,98156.85
2023-02-18T01:31:50.579Z,98159.73
2023-02-18T01:34:32.517Z,98151.63
2023-02-18T01:37:13.591Z,98157.27
2023-02-18T01:39:55.422Z,98156.23
2023-02-18T01:42:43.430Z,98173.52
2023-02-18T01:45:39.138Z,98161.41
2023-02-18T01:48:28.507Z,98148.11
2023-02-18T01:51:32.530Z,98153.14
2023-02-18T01:54:57.530Z,98146.23
2023-02-18T01:57:46.425Z,98146.98
2023-02-18T02:00:31.443Z,98161.05
2023-02-18T02:03:26.451Z,98170.14
2023-02-18T02:06:23.504Z,98169.83
2023-02-18T02:09:08.468Z,98159.13
2023-02-18T02:12:24.476Z,98162.91
2023-02-18T02:15:37.487Z,98178.09
2023-02-18T02:18:23.495Z,98185.85
2023-02-18T02:21:39.472Z,98180.09
2023-02-18T02:25:03.456Z,98180.36
2023-02-18T02:27:59.572Z,98190.48
2023-02-18T02:31:19.455Z,98196.42
2023-02-18T02:34:19.492Z,98191.25
2023-02-18T02:37:57.507Z,98198.77
2023-02-18T02:41:00.494Z,98207.46
2023-02-18T02:43:58.407Z,98202.85
2023-02-18T02:46:41.571Z,98208.20
2023-02-18T02:49:53.405Z,98221.73
2023-02-18T02:52:33.561Z,98222.65
2023-02-18T02:55:21.476Z,98219.29
2023-02-18T02:58:06.430Z,98231.40
2023-02-18T03:01:54.486Z,98229.93
2023-02-18T03:04:57.416Z,98225.81
2023-02-18T03:08:04.564Z,98237.11
2023-02-18T03:11:01.509Z,98256.08
2023-02-18T03:14:21.499Z,98241.81
2023-02-18T03:17:34.395Z,98248.27
2023-02-18T03:20:26.661Z,98244.38
2023-02-18T03:23:18.402Z,98248.23
2023-02-18T03:25:53.663Z,98246.54
2023-02-18T03:28:42.407Z,98253.70
2023-02-18T03:31:26.482Z,98248.77
2023-02-18T03:34:18.418Z,98257.45
2023-02-18T03:36:53.595Z,98252.62
2023-02-18T03:39:42.409Z,98253.94
2023-02-18T03:42:18.921Z,98249.59
2023-02-18T03:45:06.448Z,98261.09
2023-02-18T03:47:41.544Z,98278.31
2023-02-18T03:50:29.424Z,98271.88
2023-02-18T03:53:11.413Z,98280.89
2023-02-18T03:55:52.814Z,98291.70
2023-02-18T03:58:40.413Z,98283.14
2023-02-18T04:01:15.190Z,98283.55
2023-02-18T04:04:03.535Z,98291.77
2023-02-18T04:06:38.940Z,98296.40
2023-02-18T04:09:26.390Z,98295.60
2023-02-18T04:12:07.418Z,98292.89
2023-02-18T04:14:48.621Z,98296.23
2023-02-18T04:17:30.389Z,98298.77
2023-02-18T04:20:19.412Z,98286.12
2023-02-18T04:23:00.392Z,98283.85
2023-02-18T04:25:41.527Z,98288.00
2023-02-18T04:28:23.392Z,98285.65
2023-02-18T04:31:04.687Z,98283.41
2023-02-18T04:33:46.488Z,98285.35
2023-02-18T04:36:27.593Z,98289.77
2023-02-18T04:39:08.433Z,98284.42
2023-02-18T04:41:49.612Z,98299.23
2023-02-18T04:44:31.407Z,98299.09
2023-02-18T04:47:13.525Z,98293.23
2023-02-18T04:49:54.389Z,98303.13
2023-02-18T04:52:35.756Z,98292.80
2023-02-18T04:55:17.458Z,98294.52
2023-02-18T04:57:58.574Z,98292.14
2023-02-18T05:00:46.395Z,98296.48
2023-02-18T05:03:28.401Z,98295.34
2023-02-18T05:06:23.387Z,98288.66
2023-02-18T05:09:11.374Z,98289.95
2023-02-18T05:11:47.669Z,98292.08
2023-02-18T05:14:35.396Z,98291.60
2023-02-18T05:17:10.524Z,98290.22
2023-02-18T05:19:58.403Z,98285.45
2023-02-18T05:22:33.529Z,98299.42
2023-02-18T05:25:21.402Z,98298.61
2023-02-18T05:28:03.376Z,98305.67
2023-02-18T05:30:44.878Z,98308.98
2023-02-18T05:33:32.439Z,98304.71
2023-02-18T05:36:07.318Z,98320.59
2023-02-18T05:38:55.391Z,98310.55
2023-02-18T05:41:29.784Z,98312.84
2023-02-18T05:44:35.403Z,98313.73
2023-02-18T05:47:12.880Z,98318.02
2023-02-18T05:50:00.512Z,98315.51
2023-02-18T05:52:34.833Z,98315.70
2023-02-18T05:55:22.464Z,98314.20
2023-02-18T05:57:56.831Z,98322.88
2023-02-18T06:00:44.380Z,98324.06
2023-02-18T06:03:18.792Z,98327.33
2023-02-18T06:06:06.500Z,98337.17
2023-02-18T06:08:47.391Z,98335.30
2023-02-18T06:11:35.468Z,98348.38
2023-02-18T06:14:16.447Z,98348.27
2023-02-18T06:16:57.616Z,98333.40
2023-02-18T06:19:39.381Z,98335.94
2023-02-18T06:22:20.522Z,98340.97
2023-02-18T06:25:02.393Z,98345.08
2023-02-18T06:27:57.392Z,98356.13
2023-02-18T06:30:45.420Z,98352.33
2023-02-18T06:33:29.512Z,98346.21
2023-02-18T06:36:14.380Z,98349.55
2023-02-18T06:38:57.658Z,98350.61
2023-02-18T06:41:38.836Z,98354.43
2023-02-18T06:44:19.710Z,98363.77
2023-02-18T06:47:01.700Z,98359.60
2023-02-18T06:49:50.376Z,98361.25
2023-02-18T06:52:25.042Z,98363.42
2023-02-18T06:55:14.374Z,98369.63
2023-02-18T06:57:48.775Z,98370.86
2023-02-18T07:00:37.651Z,98369.47
2023-02-18T07:03:14.622Z,98365.48
2023-02-18T07:06:03.578Z,98362.64
2023-02-18T07:08:41.995Z,98373.73
2023-02-18T07:11:30.426Z,98375.08
2023-02-18T07:14:08.224Z,98380.02
2023-02-18T07:16:56.359Z,98378.31
2023-02-18T07:19:30.758Z,98373.90
2023-02-18T07:22:18.384Z,98370.84
2023-02-18T07:24:53.995Z,98371.44
2023-02-18T07:27:42.711Z,98373.12
2023-02-18T07:30:19.104Z,98378.34
2023-02-18T07:33:07.386Z,98383.27
2023-02-18T07:35:41.763Z,98376.03
2023-02-18T07:38:29.355Z,98375.52
2023-02-18T07:41:03.888Z,98375.54
2023-02-18T07:43:51.563Z,98363.65
2023-02-18T07:46:33.420Z,98360.46
2023-02-18T07:49:15.707Z,98369.02
2023-02-18T07:51:57.354Z,98377.70
2023-02-18T07:54:39.623Z,98377.88
2023-02-18T07:57:21.556Z,98378.34
2023-02-18T08:00:04.274Z,98377.92
2023-02-18T08:02:46.576Z,98380.02
2023-02-18T08:05:28.502Z,98376.69
2023-02-18T08:08:09.400Z,98388.07
2023-02-18T08:10:51.704Z,98382.21
2023-02-18T08:13:33.364Z,98388.20
2023-02-18T08:16:14.593Z,98389.94
2023-02-18T08:18:57.581Z,98392.99
2023-02-18T08:21:39.598Z,98390.77
2023-02-18T08:24:22.361Z,98393.15
2023-02-18T08:27:10.374Z,98394.50
2023-02-18T08:30:05.420Z,98396.58
2023-02-18T08:32:53.384Z,98396.63
2023-02-18T08:35:29.478Z,98392.23
2023-02-18T08:38:21.377Z,98401.10
2023-02-18T08:40:56.515Z,98406.16
2023-02-18T08:43:47.422Z,98407.98
2023-02-18T08:46:31.464Z,98405.30
2023-02-18T08:49:23.364Z,98406.85
2023-02-18T08:52:04.381Z,98399.06
2023-02-18T08:54:59.356Z,98411.55
2023-02-18T08:57:47.373Z,98411.34
2023-02-18T09:00:23.570Z,98408.39
2023-02-18T09:03:11.351Z,98411.34
2023-02-18T09:05:53.368Z,98410.27
2023-02-18T09:08:42.483Z,98419.58
2023-02-18T09:11:24.504Z,98413.35
2023-02-18T09:14:05.368Z,98414.71
2023-02-18T09:16:47.487Z,98403.75
2023-02-18T09:19:29.462Z,98401.94
2023-02-18T09:22:17.345Z,98395.59
2023-02-18T09:24:53.074Z,98401.04
2023-02-18T09:27:41.354Z,98400.13
2023-02-18T09:30:36.524Z,98393.42
2023-02-18T09:33:25.366Z,98389.70
2023-02-18T09:36:07.627Z,98391.00
2023-02-18T09:38:55.344Z,98388.20
2023-02-18T09:41:49.040Z,98383.02
2023-02-18T09:44:50.372Z,98385.73
2023-02-18T09:47:38.343Z,98379.14
2023-02-18T09:50:35.359Z,98386.59
2023-02-18T09:53:24.347Z,98391.48
2023-02-18T09:56:04.506Z,98384.84
2023-02-18T09:58:54.360Z,98380.91
2023-02-18T10:01:44.380Z,98376.02
2023-02-18T10:04:44.343Z,98380.17
2023-02-18T10:07:35.372Z,98378.83
2023-02-18T10:10:30.374Z,98367.16
2023-02-18T10:13:24.344Z,98358.67
2023-02-18T10:16:07.709Z,98357.02
2023-02-18T10:18:58.889Z,98359.63
2023-02-18T10:21:41.465Z,98360.45
2023-02-18T10:24:48.356Z,98362.95
2023-02-18T10:27:49.349Z,98366.93
2023-02-18T10:30:51.367Z,98366.07
2023-02-18T10:33:26.463Z,98370.75
2023-02-18T10:36:33.349Z,98372.23
2023-02-18T10:39:32.518Z,98372.69
2023-02-18T10:42:45.434Z,98352.14
2023-02-18T10:45:27.872Z,98340.23
2023-02-18T10:48:40.594Z,98338.79
2023-02-18T10:51:37.479Z,98336.55
2023-02-18T10:54:25.333Z,98331.62
2023-02-18T10:57:05.509Z,98329.89
2023-02-18T11:00:19.326Z,98327.48
2023-02-18T11:03:28.553Z,98313.30
2023-02-18T11:06:10.343Z,98310.83
2023-02-18T11:08:59.370Z,98320.28
2023-02-18T11:11:50.665Z,98305.23
2023-02-18T11:15:02.547Z,98294.13
2023-02-18T11:17:38.367Z,98291.71
2023-02-18T11:20:36.407Z,98292.14
2023-02-18T11:23:22.433Z,98286.33
2023-02-18T11:26:21.485Z,98285.73
2023-02-18T11:29:08.421Z,98283.33
2023-02-18T11:31:52.702Z,98284.52
2023-02-18T11:34:38.409Z,98286.89
2023-02-18T11:37:20.659Z,98292.48
2023-02-18T11:40:03.370Z,98282.88
2023-02-18T11:42:45.821Z,98287.03
2023-02-18T11:45:40.424Z,98286.40
2023-02-18T11:48:27.475Z,98283.98
2023-02-18T11:51:08.819Z,98287.40
2023-02-18T11:54:25.030Z,98289.41
2023-02-18T11:57:21.456Z,98288.18
2023-02-18T11:59:57.653Z,98277.17
2023-02-18T12:02:47.451Z,98282.23
2023-02-18T12:05:29.138Z,98284.68
2023-02-18T12:08:21.680Z,98272.06
2023-02-18T12:11:09.718Z,98286.34
2023-02-18T12:14:11.445Z,98281.19
2023-02-18T12:17:08.550Z,98276.90
2023-02-18T12:20:07.021Z,98284.03
2023-02-18T12:23:27.606Z,98282.14
2023-02-18T12:26:21.928Z,98273.71
2023-02-18T12:29:16.357Z,98258.03
2023-02-18T12:32:00.952Z,98252.41
2023-02-18T12:35:01.531Z,98246.91
2023-02-18T12:38:03.485Z,98244.95
2023-02-18T12:41:02.345Z,98232.81
2023-02-18T12:43:45.817Z,98224.02
2023-02-18T12:46:52.476Z,98222.66
2023-02-18T12:49:46.581Z,98221.21
2023-02-18T12:53:06.352Z,98197.78
2023-02-18T12:56:10.249Z,98186.31
2023-02-18T12:59:03.357Z,98182.05
2023-02-18T13:02:11.384Z,98188.45
2023-02-18T13:04:54.857Z,98187.92
2023-02-18T13:07:58.331Z,98176.66
2023-02-18T13:11:08.425Z,98169.19
2023-02-18T13:14:05.577Z,98164.33
2023-02-18T13:16:50.415Z,98162.54
2023-02-18T13:19:36.467Z,98164.57
2023-02-18T13:22:19.335Z,98157.80
2023-02-18T13:25:02.558Z,98156.45
2023-02-18T13:27:50.360Z,98164.92
2023-02-18T13:30:57.849Z,98163.20
2023-02-18T13:33:51.331Z,98153.36
2023-02-18T13:36:41.314Z,98135.44
2023-02-18T13:39:37.524Z,98118.89
2023-02-18T13:42:32.319Z,98110.79
2023-02-18T13:45:40.332Z,98109.52
2023-02-18T13:48:34.493Z,98106.79
2023-02-18T13:51:15.328Z,98107.45
2023-02-18T13:54:46.323Z,98104.66
2023-02-18T13:57:41.492Z,98102.17
2023-02-18T14:00:39.465Z,98100.98
2023-02-18T14:03:50.537Z,98089.30
2023-02-18T14:06:37.430Z,98080.00
2023-02-18T14:09:33.462Z,98077.45
2023-02-18T14:12:54.673Z,98069.95
2023-02-18T14:15:42.346Z,98063.90
2023-02-18T14:18:17.461Z,98056.31
2023-02-18T14:21:47.384Z,98050.56
2023-02-18T14:24:54.723Z,98040.95
2023-02-18T14:27:43.324Z,98040.67
2023-02-18T14:30:50.449Z,98033.30
2023-02-18T14:33:42.532Z,98026.63
2023-02-18T14:36:43.468Z,98012.80
2023-02-18T14:39:42.386Z,98008.27
2023-02-18T14:42:35.510Z,98001.45
2023-02-18T14:45:48.324Z,97991.08
2023-02-18T14:49:07.367Z,97987.00
2023-02-18T14:52:03.429Z,97980.27
2023-02-18T14:54:53.460Z,97970.28
2023-02-18T14:57:54.416Z,97966.14
2023-02-18T15:00:42.350Z,97959.77
2023-02-18T15:03:25.596Z,97956.14
2023-02-18T15:06:09.775Z,97948.06
2023-02-18T15:08:58.334Z,97933.84
2023-02-18T15:11:49.354Z,97923.33
2023-02-18T15:14:32.581Z,97921.98
2023-02-18T15:17:27.326Z,97922.48
2023-02-18T15:20:14.325Z,97917.24
2023-02-18T15:23:02.428Z,97907.19
2023-02-18T15:25:46.910Z,97902.89
2023-02-18T15:28:47.329Z,97893.08
2023-02-18T15:31:44.450Z,97885.86
2023-02-18T15:34:47.328Z,97879.82
2023-02-18T15:37:23.478Z,97869.90
2023-02-18T15:40:11.303Z,97858.80
2023-02-18T15:42:53.326Z,97851.76
2023-02-18T15:45:49.296Z,97837.56
2023-02-18T15:48:46.679Z,97818.80
2023-02-18T15:51:38.307Z,97806.20
2023-02-18T15:54:13.477Z,97803.11
2023-02-18T15:57:03.338Z,97797.91
2023-02-18T15:59:52.822Z,97787.91
2023-02-18T16:02:34.856Z,97774.44
2023-02-18T16:05:29.331Z,97766.85
2023-02-18T16:08:23.800Z,97761.39
2023-02-18T16:11:18.718Z,97761.98
2023-02-18T16:14:02.557Z,97762.64
2023-02-18T16:16:55.375Z,97757.06
2023-02-18T16:19:33.632Z,97750.91
2023-02-18T16:22:37.507Z,97753.06
2023-02-18T16:25:24.372Z,97749.88
2023-02-18T16:28:12.316Z,97750.09
2023-02-18T16:31:02.463Z,97748.73
2023-02-18T16:33:39.758Z,97746.14
2023-02-18T16:36:29.513Z,97740.66
2023-02-18T16:39:06.584Z,97736.34
2023-02-18T16:41:55.577Z,97735.69
2023-02-18T16:44:30.662Z,97742.70
2023-02-18T16:47:23.883Z,97738.73
2023-02-18T16:50:03.224Z,97745.56
2023-02-18T16:52:51.759Z,97748.41
2023-02-18T16:55:29.862Z,97743.10
2023-02-18T16:58:19.505Z,97741.66
2023-02-18T17:01:03.566Z,97734.98
2023-02-18T17:04:01.786Z,97734.89
2023-02-18T17:06:50.324Z,97735.69
2023-02-18T17:09:28.478Z,97732.75
2023-02-18T17:12:16.290Z,97738.00
2023-02-18T17:14:51.464Z,97737.66
2023-02-18T17:17:40.715Z,97737.41
2023-02-18T17:20:19.784Z,97740.71
2023-02-18T17:23:07.312Z,97737.16
2023-02-18T17:25:49.507Z,97730.94
2023-02-18T17:28:30.293Z,97734.02
2023-02-18T17:31:19.364Z,97733.60
2023-02-18T17:33:59.583Z,97729.13
2023-02-18T17:36:52.287Z,97724.90
2023-02-18T17:39:26.635Z,97721.98
2023-02-18T17:42:14.313Z,97726.89
2023-02-18T17:44:48.680Z,97727.15
2023-02-18T17:47:36.308Z,97717.02
2023-02-18T17:50:18.301Z,97712.88
2023-02-18T17:53:00.460Z,97710.69
2023-02-18T17:55:43.853Z,97710.05
2023-02-18T17:58:31.312Z,97713.54
2023-02-18T18:01:06.012Z,97710.58
2023-02-18T18:04:21.320Z,97708.13
2023-02-18T18:07:04.461Z,97704.90
2023-02-18T18:09:52.342Z,97716.58
2023-02-18T18:12:35.355Z,97716.31
2023-02-18T18:15:31.283Z,97726.70
2023-02-18T18:18:21.326Z,97724.27
2023-02-18T18:20:59.471Z,97731.65
2023-02-18T18:23:47.289Z,97729.98
2023-02-18T18:26:29.268Z,97733.70
2023-02-18T18:29:10.308Z,97737.04
2023-02-18T18:31:52.457Z,97729.16
2023-02-18T18:34:33.388Z,97730.51
2023-02-18T18:37:24.782Z,97734.95
2023-02-18T18:40:00.148Z,97733.35
2023-02-18T18:42:48.290Z,97733.78
2023-02-18T18:45:32.053Z,97730.27
2023-02-18T18:51:19.568Z,97756.21
2023-02-18T18:54:09.738Z,97751.21
2023-02-18T18:56:44.748Z,97761.44
2023-02-18T18:59:34.343Z,97759.93
2023-02-18T19:02:17.203Z,97766.38
2023-02-18T19:05:05.478Z,97752.36
2023-02-18T19:07:39.849Z,97751.63
2023-02-18T19:10:29.723Z,97756.45
2023-02-18T19:13:12.460Z,97763.20
2023-02-18T19:16:01.456Z,97770.50
2023-02-18T19:18:35.705Z,97769.79
2023-02-18T19:21:23.271Z,97790.77
2023-02-18T19:23:57.889Z,97776.66
2023-02-18T19:26:46.273Z,97779.17
2023-02-18T19:29:31.050Z,97775.33
2023-02-18T19:32:21.730Z,97782.17
2023-02-18T19:35:07.295Z,97780.78
2023-02-18T19:37:56.286Z,97779.63
2023-02-18T19:40:34.416Z,97775.65
2023-02-18T19:43:23.303Z,97780.77
2023-02-18T19:45:59.083Z,97780.85
2023-02-18T19:48:53.681Z,97788.09
2023-02-18T19:51:36.757Z,97802.37
2023-02-18T19:54:18.414Z,97815.91
2023-02-18T19:57:00.841Z,97846.20
2023-02-18T19:59:42.429Z,97849.26
2023-02-18T20:02:34.504Z,97849.34
2023-02-18T20:05:23.829Z,97850.20
2023-02-18T20:07:58.793Z,97844.52
2023-02-18T20:10:53.564Z,97860.48
2023-02-18T20:13:35.408Z,97861.60
2023-02-18T20:16:23.293Z,97859.36
2023-02-18T20:19:04.622Z,97869.44
2023-02-18T20:21:53.303Z,97871.39
2023-02-18T20:24:30.132Z,97880.55
2023-02-18T20:27:19.417Z,97886.84
2023-02-18T20:30:15.372Z,97890.06
2023-02-18T20:33:03.481Z,97895.53
2023-02-18T20:35:39.428Z,97887.55
2023-02-18T20:38:27.294Z,97894.74
2023-02-18T20:41:10.071Z,97894.08
2023-02-18T20:44:06.229Z,97898.19
2023-02-18T20:47:05.295Z,97899.48
2023-02-18T20:49:53.398Z,97906.23
2023-02-18T20:52:28.712Z,97902.69
2023-02-18T20:55:16.330Z,97897.02
2023-02-18T20:57:54.130Z,97895.67
2023-02-18T21:00:42.301Z,97895.39
2023-02-18T21:03:26.707Z,97906.16
2023-02-18T21:06:18.368Z,97905.59
2023-02-18T21:09:02.231Z,97912.31
2023-02-18T21:11:57.308Z,97917.20
2023-02-18T21:14:52.280Z,97918.61
2023-02-18T21:17:40.396Z,97928.86
2023-02-18T21:20:22.279Z,97945.79
2023-02-18T21:23:17.259Z,97950.56
2023-02-18T21:26:14.264Z,97951.34
2023-02-18T21:28:58.410Z,97953.06
2023-02-18T21:31:42.338Z,97952.48
2023-02-18T21:34:30.292Z,97971.37
2023-02-18T21:37:04.657Z,97968.27
2023-02-18T21:39:52.534Z,97955.64
2023-02-18T21:42:34.412Z,97960.01
2023-02-18T21:45:17.637Z,97965.98
2023-02-18T21:47:59.416Z,97965.24
2023-02-18T21:50:40.395Z,97987.14
2023-02-18T21:53:21.267Z,97991.98
2023-02-18T21:56:03.951Z,97995.45
2023-02-18T21:58:45.261Z,98006.61
2023-02-18T22:01:27.736Z,98006.77
2023-02-18T22:04:09.371Z,98008.06
2023-02-18T22:06:58.277Z,98009.02
2023-02-18T22:09:32.772Z,98012.17
2023-02-18T22:12:20.280Z,98011.59
2023-02-18T22:14:54.770Z,98012.65
2023-02-18T22:17:42.264Z,98018.29
2023-02-18T22:20:16.736Z,98025.36
2023-02-18T22:23:04.265Z,98036.27
2023-02-18T22:25:45.287Z,98044.05
2023-02-18T22:28:27.589Z,98053.05
2023-02-18T22:31:17.571Z,98055.98
2023-02-18T22:34:06.485Z,98058.01
2023-02-18T22:36:47.457Z,98065.73
2023-02-18T22:39:35.465Z,98070.42
2023-02-18T22:42:11.673Z,98078.49
2023-02-18T22:44:59.268Z,98079.26
2023-02-18T22:47:34.684Z,98080.09
2023-02-18T22:50:22.259Z,98088.80
2023-02-18T22:53:03.266Z,98089.77
2023-02-18T22:55:44.378Z,98096.55
2023-02-18T22:58:25.256Z,98094.66
2023-02-18T23:01:07.247Z,98099.27
2023-02-18T23:03:49.292Z,98109.75
2023-02-18T23:06:38.289Z,98122.05
2023-02-18T23:09:27.255Z,98120.20
2023-02-18T23:12:08.391Z,98126.30
2023-02-18T23:14:49.457Z,98136.11
2023-02-18T23:17:30.391Z,98144.36
2023-02-18T23:20:11.276Z,98151.52
2023-02-18T23:22:52.651Z,98162.59
2023-02-18T23:25:34.384Z,98174.83
2023-02-18T23:28:23.262Z,98180.86
2023-02-18T23:31:18.333Z,98179.40
2023-02-18T23:34:08.247Z,98188.16
2023-02-18T23:36:43.679Z,98197.55
2023-02-18T23:39:32.458Z,98201.12
2023-02-18T23:42:14.442Z,98194.73
2023-02-18T23:45:09.325Z,98183.98
2023-02-18T23:47:57.451Z,98185.46
2023-02-18T23:50:32.395Z,98182.79
2023-02-18T23:53:20.252Z,98195.91
2023-02-18T23:56:01.263Z,98199.00
2023-02-18T23:58:52.497Z,98205.00
